Time,TemperatureF,DewpointF,PressureIn,WindDirection,WindDirectionDegrees,WindSpeedMPH,WindSpeedGustMPH,Humidity,HourlyPrecipIn,Conditions,Clouds,dailyrainin,SoftwareType,DateUTC
2013-01-30 00:02:00,46.2,44.8,30.08,South,181,1.0,1.0,95,0.00,,---,0.00,VWS V14.00,2013-01-30 05:02:00,
2013-01-30 00:03:00,46.2,44.8,30.08,South,181,0.0,0.0,95,0.00,,---,0.00,VWS V14.00,2013-01-30 05:03:00,
2013-01-30 00:05:00,46.2,44.8,30.08,South,181,0.0,0.0,95,0.00,,---,0.00,VWS V14.00,2013-01-30 05:05:00,
2013-01-30 00:08:00,46.3,45.0,30.08,South,181,0.0,0.0,95,0.00,,---,0.00,VWS V14.00,2013-01-30 05:08:00,
2013-01-30 00:13:00,46.3,45.0,30.08,South,181,0.0,0.0,95,0.00,,---,0.00,VWS V14.00,2013-01-30 05:13:00,
2013-01-30 00:19:00,46.3,45.0,30.08,South,181,0.0,2.0,95,0.00,,---,0.00,VWS V14.00,2013-01-30 05:19:00,
2013-01-30 00:24:00,46.4,45.0,30.07,South,181,0.0,0.0,95,0.00,,---,0.00,VWS V14.00,2013-01-30 05:24:00,
2013-01-30 00:29:00,46.4,45.0,30.07,South,181,0.0,0.0,95,0.00,,---,0.00,VWS V14.00,2013-01-30 05:29:00,
2013-01-30 00:34:00,46.3,45.0,30.06,South,181,0.0,0.0,95,0.00,,---,0.00,VWS V14.00,2013-01-30 05:34:00,
2013-01-30 00:39:00,46.2,44.8,30.06,South,181,2.0,2.0,95,0.00,,---,0.00,VWS V14.00,2013-01-30 05:39:00,
2013-01-30 00:44:00,46.2,44.8,30.06,SSE,164,0.0,1.0,95,0.00,,---,0.00,VWS V14.00,2013-01-30 05:44:00,
2013-01-30 00:49:00,46.1,44.8,30.05,SSE,164,0.0,0.0,95,0.00,,---,0.00,VWS V14.00,2013-01-30 05:49:00,
2013-01-30 00:54:00,46.0,44.9,30.05,SSE,164,0.0,4.0,96,0.00,,---,0.00,VWS V14.00,2013-01-30 05:54:00,
2013-01-30 00:59:00,46.1,45.0,30.04,SSE,168,1.0,1.0,96,0.00,,---,0.00,VWS V14.00,2013-01-30 05:59:00,
2013-01-30 01:04:00,46.1,45.0,30.04,SSE,168,1.0,2.0,96,0.00,,---,0.00,VWS V14.00,2013-01-30 06:04:00,
2013-01-30 01:09:00,46.0,44.9,30.04,SSE,168,0.0,1.0,96,0.00,,---,0.00,VWS V14.00,2013-01-30 06:09:00,
2013-01-30 01:14:00,46.0,44.9,30.04,SSE,168,0.0,0.0,96,0.00,,---,0.00,VWS V14.00,2013-01-30 06:14:00,
2013-01-30 01:19:00,46.0,44.7,30.03,SSE,168,0.0,0.0,95,0.00,,---,0.00,VWS V14.00,2013-01-30 06:19:00,
2013-01-30 01:25:00,46.1,45.0,30.02,SSE,168,0.0,0.0,96,0.00,,---,0.00,VWS V14.00,2013-01-30 06:25:00,
2013-01-30 01:30:00,46.2,45.1,30.02,SSE,168,0.0,0.0,96,0.00,,---,0.00,VWS V14.00,2013-01-30 06:30:00,
2013-01-30 01:35:00,46.3,45.2,30.02,SSE,168,0.0,0.0,96,0.00,,---,0.00,VWS V14.00,2013-01-30 06:35:00,
2013-01-30 01:40:00,46.5,45.4,30.02,SSE,168,0.0,0.0,96,0.00,,---,0.00,VWS V14.00,2013-01-30 06:40:00,
2013-01-30 01:45:00,46.6,45.5,30.02,SSE,168,0.0,0.0,96,0.00,,---,0.00,VWS V14.00,2013-01-30 06:45:00,
2013-01-30 01:50:00,46.6,45.5,30.02,SSE,168,0.0,0.0,96,0.00,,---,0.00,VWS V14.00,2013-01-30 06:50:00,
2013-01-30 01:55:00,46.6,45.5,30.02,SSE,168,0.0,1.0,96,0.00,,---,0.00,VWS V14.00,2013-01-30 06:55:00,
2013-01-30 02:00:00,46.6,45.5,30.02,SSE,168,0.0,1.0,96,0.00,,---,0.00,VWS V14.00,2013-01-30 07:00:00,
2013-01-30 02:05:00,46.6,45.5,30.01,SSE,168,1.0,1.0,96,0.00,,---,0.00,VWS V14.00,2013-01-30 07:05:00,
2013-01-30 02:10:00,46.6,45.5,30.01,South,170,0.0,0.0,96,0.00,,---,0.00,VWS V14.00,2013-01-30 07:10:00,
2013-01-30 02:15:00,46.6,45.5,30.01,South,170,1.0,2.0,96,0.00,,---,0.00,VWS V14.00,2013-01-30 07:15:00,
2013-01-30 02:20:00,46.6,45.5,30.00,South,170,0.0,0.0,96,0.00,,---,0.00,VWS V14.00,2013-01-30 07:20:00,
2013-01-30 02:26:00,46.6,45.5,30.00,South,170,0.0,0.0,96,0.00,,---,0.00,VWS V14.00,2013-01-30 07:26:00,
2013-01-30 02:31:00,46.6,45.5,30.00,South,170,0.0,0.0,96,0.00,,---,0.00,VWS V14.00,2013-01-30 07:31:00,
2013-01-30 02:36:00,46.6,45.5,30.00,South,170,0.0,1.0,96,0.00,,---,0.00,VWS V14.00,2013-01-30 07:36:00,
2013-01-30 02:41:00,46.6,45.5,30.00,South,170,0.0,1.0,96,0.00,,---,0.00,VWS V14.00,2013-01-30 07:41:00,
2013-01-30 02:46:00,46.7,45.6,29.99,SSE,157,0.0,1.0,96,0.00,,---,0.00,VWS V14.00,2013-01-30 07:46:00,
2013-01-30 02:51:00,46.6,45.5,29.99,SSE,157,0.0,4.0,96,0.00,,---,0.00,VWS V14.00,2013-01-30 07:51:00,
2013-01-30 02:56:00,46.6,45.5,29.99,SSE,167,0.0,1.0,96,0.00,,---,0.00,VWS V14.00,2013-01-30 07:56:00,
2013-01-30 03:01:00,46.7,45.6,29.99,SSE,167,0.0,1.0,96,0.00,,---,0.00,VWS V14.00,2013-01-30 08:01:00,
2013-01-30 03:06:00,46.7,45.6,29.99,SSE,167,0.0,0.0,96,0.00,,---,0.00,VWS V14.00,2013-01-30 08:06:00,
2013-01-30 03:11:00,46.6,45.5,29.99,SSE,167,0.0,0.0,96,0.00,,---,0.00,VWS V14.00,2013-01-30 08:11:00,
2013-01-30 03:16:00,46.5,45.4,29.98,SSE,167,0.0,0.0,96,0.00,,---,0.00,VWS V14.00,2013-01-30 08:16:00,
2013-01-30 03:21:00,46.5,45.4,29.98,SSE,167,0.0,0.0,96,0.00,,---,0.00,VWS V14.00,2013-01-30 08:21:00,
2013-01-30 03:27:00,46.6,45.5,29.98,SSE,167,0.0,0.0,96,0.00,,---,0.00,VWS V14.00,2013-01-30 08:27:00,
2013-01-30 03:32:00,46.5,45.4,29.98,SSE,167,0.0,0.0,96,0.00,,---,0.00,VWS V14.00,2013-01-30 08:32:00,
2013-01-30 03:37:00,46.6,45.5,29.98,SSE,167,0.0,0.0,96,0.00,,---,0.00,VWS V14.00,2013-01-30 08:37:00,
2013-01-30 03:42:00,46.7,45.6,29.97,SSE,167,0.0,0.0,96,0.00,,---,0.00,VWS V14.00,2013-01-30 08:42:00,
2013-01-30 03:47:00,46.7,45.6,29.96,SSE,167,0.0,0.0,96,0.00,,---,0.00,VWS V14.00,2013-01-30 08:47:00,
2013-01-30 03:52:00,46.7,45.6,29.95,SSE,167,0.0,0.0,96,0.00,,---,0.00,VWS V14.00,2013-01-30 08:52:00,
2013-01-30 03:57:00,46.7,45.6,29.95,SSE,167,0.0,0.0,96,0.00,,---,0.00,VWS V14.00,2013-01-30 08:57:00,
2013-01-30 04:02:00,46.8,45.7,29.95,SSE,167,0.0,0.0,96,0.00,,---,0.00,VWS V14.00,2013-01-30 09:02:00,
2013-01-30 04:07:00,46.8,45.7,29.95,SSE,167,0.0,0.0,96,0.00,,---,0.00,VWS V14.00,2013-01-30 09:07:00,
2013-01-30 04:12:00,46.9,45.8,29.95,SSE,167,2.0,2.0,96,0.00,,---,0.00,VWS V14.00,2013-01-30 09:12:00,
2013-01-30 04:17:00,46.8,45.7,29.95,SSE,167,0.0,0.0,96,0.00,,---,0.00,VWS V14.00,2013-01-30 09:17:00,
2013-01-30 04:22:00,46.8,45.7,29.95,SSE,167,0.0,0.0,96,0.00,,---,0.00,VWS V14.00,2013-01-30 09:22:00,
2013-01-30 04:28:00,46.7,45.6,29.94,SSE,167,0.0,0.0,96,0.00,,---,0.00,VWS V14.00,2013-01-30 09:28:00,
2013-01-30 04:33:00,46.6,45.5,29.94,SSE,167,0.0,0.0,96,0.00,,---,0.00,VWS V14.00,2013-01-30 09:33:00,
2013-01-30 04:38:00,46.6,45.5,29.94,SSE,167,0.0,1.0,96,0.00,,---,0.00,VWS V14.00,2013-01-30 09:38:00,
2013-01-30 04:43:00,46.6,45.5,29.94,SSE,167,0.0,0.0,96,0.00,,---,0.00,VWS V14.00,2013-01-30 09:43:00,
2013-01-30 04:48:00,46.5,45.4,29.93,SSE,167,0.0,0.0,96,0.00,,---,0.00,VWS V14.00,2013-01-30 09:48:00,
2013-01-30 04:53:00,46.4,45.3,29.93,SSE,167,0.0,1.0,96,0.00,,---,0.00,VWS V14.00,2013-01-30 09:53:00,
2013-01-30 04:58:00,46.4,45.3,29.93,SSE,167,0.0,0.0,96,0.00,,---,0.00,VWS V14.00,2013-01-30 09:58:00,
2013-01-30 05:03:00,46.3,45.2,29.93,SSE,167,0.0,2.0,96,0.00,,---,0.00,VWS V14.00,2013-01-30 10:03:00,
2013-01-30 05:08:00,46.2,45.1,29.93,South,184,0.0,1.0,96,0.00,,---,0.00,VWS V14.00,2013-01-30 10:08:00,
2013-01-30 05:13:00,46.2,45.1,29.93,South,184,0.0,0.0,96,0.00,,---,0.00,VWS V14.00,2013-01-30 10:13:00,
2013-01-30 05:18:00,46.0,44.9,29.93,South,184,0.0,0.0,96,0.00,,---,0.00,VWS V14.00,2013-01-30 10:18:00,
2013-01-30 05:24:00,45.9,44.8,29.93,South,184,0.0,0.0,96,0.00,,---,0.00,VWS V14.00,2013-01-30 10:24:00,
2013-01-30 05:29:00,45.9,44.8,29.93,South,184,0.0,1.0,96,0.00,,---,0.00,VWS V14.00,2013-01-30 10:29:00,
2013-01-30 05:34:00,45.8,44.7,29.94,SSW,213,0.0,0.0,96,0.00,,---,0.00,VWS V14.00,2013-01-30 10:34:00,
2013-01-30 05:39:00,45.7,44.6,29.93,SSE,165,5.0,5.0,96,0.00,,---,0.00,VWS V14.00,2013-01-30 10:39:00,
2013-01-30 05:44:00,45.6,44.5,29.93,SSE,165,0.0,1.0,96,0.00,,---,0.00,VWS V14.00,2013-01-30 10:44:00,
2013-01-30 05:49:00,45.5,44.4,29.93,SSE,165,1.0,2.0,96,0.00,,---,0.00,VWS V14.00,2013-01-30 10:49:00,
2013-01-30 05:54:00,45.4,44.3,29.93,SSE,165,0.0,0.0,96,0.00,,---,0.00,VWS V14.00,2013-01-30 10:54:00,
2013-01-30 05:59:00,45.2,44.1,29.93,SSE,165,1.0,1.0,96,0.00,,---,0.00,VWS V14.00,2013-01-30 10:59:00,
2013-01-30 06:04:00,45.2,44.1,29.92,SSE,165,4.0,4.0,96,0.00,,---,0.00,VWS V14.00,2013-01-30 11:04:00,
2013-01-30 06:09:00,45.2,44.1,29.92,SSE,165,2.0,2.0,96,0.00,,---,0.00,VWS V14.00,2013-01-30 11:09:00,
2013-01-30 06:14:00,45.2,44.1,29.92,SSE,165,2.0,4.0,96,0.00,,---,0.00,VWS V14.00,2013-01-30 11:14:00,
2013-01-30 06:19:00,45.3,44.2,29.92,SSW,192,0.0,1.0,96,0.00,,---,0.00,VWS V14.00,2013-01-30 11:19:00,
2013-01-30 06:24:00,45.5,44.4,29.92,SSE,165,4.0,5.0,96,0.00,,---,0.00,VWS V14.00,2013-01-30 11:24:00,
2013-01-30 06:30:00,45.7,44.6,29.91,SSE,164,2.0,4.0,96,0.00,,---,0.00,VWS V14.00,2013-01-30 11:30:00,
2013-01-30 06:35:00,45.8,44.7,29.91,South,178,4.0,5.0,96,0.00,,---,0.00,VWS V14.00,2013-01-30 11:35:00,
2013-01-30 06:40:00,45.9,44.5,29.91,SSE,167,0.0,2.0,95,0.00,,---,0.00,VWS V14.00,2013-01-30 11:40:00,
2013-01-30 06:45:00,46.0,44.9,29.91,SSE,167,4.0,5.0,96,0.00,,---,0.00,VWS V14.00,2013-01-30 11:45:00,
2013-01-30 06:50:00,46.2,44.8,29.90,SSE,159,1.0,1.0,95,0.00,,---,0.00,VWS V14.00,2013-01-30 11:50:00,
2013-01-30 06:55:00,46.3,45.0,29.90,SSE,159,2.0,2.0,95,0.00,,---,0.00,VWS V14.00,2013-01-30 11:55:00,
2013-01-30 07:00:00,46.4,45.0,29.90,South,180,0.0,0.0,95,0.00,,---,0.00,VWS V14.00,2013-01-30 12:00:00,
2013-01-30 07:05:00,46.4,45.0,29.90,South,169,0.0,0.0,95,0.00,,---,0.00,VWS V14.00,2013-01-30 12:05:00,
2013-01-30 07:10:00,46.5,45.2,29.90,SSE,162,0.0,0.0,95,0.00,,---,0.00,VWS V14.00,2013-01-30 12:10:00,
2013-01-30 07:15:00,46.4,45.0,29.90,SSE,161,0.0,0.0,95,0.00,,---,0.00,VWS V14.00,2013-01-30 12:15:00,
2013-01-30 07:20:00,46.4,45.0,29.90,South,179,1.0,2.0,95,0.00,,---,0.00,VWS V14.00,2013-01-30 12:20:00,
2013-01-30 07:25:00,46.4,45.0,29.90,SSE,163,0.0,1.0,95,0.00,,---,0.00,VWS V14.00,2013-01-30 12:25:00,
2013-01-30 07:31:00,46.3,45.0,29.90,South,184,0.0,0.0,95,0.00,,---,0.00,VWS V14.00,2013-01-30 12:31:00,
2013-01-30 07:36:00,46.3,45.2,29.90,SSE,163,2.0,4.0,96,0.00,,---,0.00,VWS V14.00,2013-01-30 12:36:00,
2013-01-30 07:41:00,46.3,45.2,29.89,SSE,163,1.0,4.0,96,0.00,,---,0.00,VWS V14.00,2013-01-30 12:41:00,
2013-01-30 07:46:00,46.4,45.0,29.89,SSE,159,4.0,6.0,95,0.00,,---,0.00,VWS V14.00,2013-01-30 12:46:00,
2013-01-30 07:51:00,46.7,45.6,29.89,South,171,4.0,5.0,96,0.00,,---,0.00,VWS V14.00,2013-01-30 12:51:00,
2013-01-30 07:56:00,46.8,45.7,29.89,SSE,165,5.0,5.0,96,0.00,,---,0.00,VWS V14.00,2013-01-30 12:56:00,
2013-01-30 08:01:00,46.9,45.5,29.89,SSE,155,2.0,5.0,95,0.00,,---,0.00,VWS V14.00,2013-01-30 13:01:00,
2013-01-30 08:06:00,46.9,45.5,29.88,SSE,152,4.0,4.0,95,0.00,,---,0.00,VWS V14.00,2013-01-30 13:06:00,
2013-01-30 08:11:00,46.9,45.5,29.88,SSW,193,1.0,3.0,95,0.00,,---,0.00,VWS V14.00,2013-01-30 13:11:00,
2013-01-30 08:16:00,47.1,45.7,29.88,South,169,0.0,0.0,95,0.00,,---,0.00,VWS V14.00,2013-01-30 13:16:00,
2013-01-30 08:21:00,47.5,46.1,29.88,SSE,165,5.0,5.0,95,0.00,,---,0.00,VWS V14.00,2013-01-30 13:21:00,
2013-01-30 08:26:00,47.9,46.5,29.87,SSE,163,4.0,4.0,95,0.00,,---,0.00,VWS V14.00,2013-01-30 13:26:00,
2013-01-30 08:31:00,48.1,46.7,29.87,SSE,162,6.0,6.0,95,0.00,,---,0.00,VWS V14.00,2013-01-30 13:31:00,
2013-01-30 08:37:00,48.3,46.9,29.87,SSE,159,1.0,4.0,95,0.00,,---,0.00,VWS V14.00,2013-01-30 13:37:00,
2013-01-30 08:42:00,48.5,47.1,29.87,South,180,2.0,2.0,95,0.00,,---,0.00,VWS V14.00,2013-01-30 13:42:00,
2013-01-30 08:47:00,48.7,47.3,29.86,SE,140,5.0,7.0,95,0.00,,---,0.00,VWS V14.00,2013-01-30 13:47:00,
2013-01-30 08:52:00,49.0,47.6,29.86,South,173,2.0,4.0,95,0.00,,---,0.00,VWS V14.00,2013-01-30 13:52:00,
2013-01-30 08:57:00,49.4,48.0,29.86,SSE,152,6.0,6.0,95,0.00,,---,0.00,VWS V14.00,2013-01-30 13:57:00,
2013-01-30 09:02:00,49.8,48.4,29.85,SSE,167,1.0,5.0,95,0.00,,---,0.00,VWS V14.00,2013-01-30 14:02:00,
2013-01-30 09:07:00,50.2,48.8,29.85,SSE,154,4.0,6.0,95,0.00,,---,0.00,VWS V14.00,2013-01-30 14:07:00,
2013-01-30 09:12:00,50.7,49.3,29.85,SSE,151,6.0,7.0,95,0.00,,---,0.00,VWS V14.00,2013-01-30 14:12:00,
2013-01-30 09:17:00,51.3,49.9,29.84,South,170,1.0,4.0,95,0.00,,---,0.00,VWS V14.00,2013-01-30 14:17:00,
2013-01-30 09:22:00,51.8,50.4,29.85,South,191,0.0,0.0,95,0.00,,---,0.00,VWS V14.00,2013-01-30 14:22:00,
2013-01-30 09:27:00,52.2,50.8,29.85,SW,216,0.0,0.0,95,0.00,,---,0.00,VWS V14.00,2013-01-30 14:27:00,
2013-01-30 09:32:00,52.4,51.0,29.84,SW,216,0.0,0.0,95,0.00,,---,0.00,VWS V14.00,2013-01-30 14:32:00,
2013-01-30 09:38:00,52.8,51.4,29.84,SW,216,0.0,1.0,95,0.00,,---,0.00,VWS V14.00,2013-01-30 14:38:00,
2013-01-30 09:43:00,53.5,52.1,29.84,South,180,2.0,3.0,95,0.00,,---,0.00,VWS V14.00,2013-01-30 14:43:00,
2013-01-30 09:48:00,54.2,52.8,29.84,South,179,1.0,1.0,95,0.00,,---,0.00,VWS V14.00,2013-01-30 14:48:00,
2013-01-30 09:53:00,55.2,53.8,29.84,SW,215,2.0,6.0,95,0.00,,---,0.00,VWS V14.00,2013-01-30 14:53:00,
2013-01-30 09:58:00,56.0,54.6,29.83,SSW,197,3.0,9.0,95,0.00,,---,0.00,VWS V14.00,2013-01-30 14:58:00,
2013-01-30 10:03:00,56.5,55.1,29.83,SSW,207,3.0,4.0,95,0.00,,---,0.00,VWS V14.00,2013-01-30 15:03:00,
2013-01-30 10:08:00,57.0,55.6,29.83,SW,214,4.0,4.0,95,0.00,,---,0.00,VWS V14.00,2013-01-30 15:08:00,
2013-01-30 10:13:00,57.5,56.1,29.83,SSW,207,0.0,2.0,95,0.00,,---,0.00,VWS V14.00,2013-01-30 15:13:00,
2013-01-30 10:18:00,57.9,56.5,29.83,SSW,209,1.0,3.0,95,0.00,,---,0.00,VWS V14.00,2013-01-30 15:18:00,
2013-01-30 10:23:00,58.4,57.0,29.83,SSW,193,3.0,5.0,95,0.00,,---,0.00,VWS V14.00,2013-01-30 15:23:00,
2013-01-30 10:28:00,59.1,57.7,29.82,SW,229,6.0,6.0,95,0.00,,---,0.00,VWS V14.00,2013-01-30 15:28:00,
2013-01-30 10:34:00,60.3,58.9,29.82,SW,227,3.0,3.0,95,0.00,,---,0.00,VWS V14.00,2013-01-30 15:34:00,
2013-01-30 10:39:00,61.1,58.8,29.82,SSW,199,0.0,3.0,92,0.00,,---,0.00,VWS V14.00,2013-01-30 15:39:00,
2013-01-30 10:44:00,61.9,58.9,29.81,South,171,6.0,6.0,90,0.00,,---,0.00,VWS V14.00,2013-01-30 15:44:00,
2013-01-30 10:49:00,62.4,58.5,29.80,SSE,161,11.0,14.0,87,0.00,,---,0.00,VWS V14.00,2013-01-30 15:49:00,
2013-01-30 10:54:00,62.5,58.3,29.80,West,262,6.0,6.0,86,0.00,,---,0.00,VWS V14.00,2013-01-30 15:54:00,
2013-01-30 10:59:00,62.3,58.1,29.80,SW,219,4.0,6.0,86,0.00,,---,0.00,VWS V14.00,2013-01-30 15:59:00,
2013-01-30 11:04:00,62.3,57.7,29.79,WSW,241,8.0,11.0,85,0.00,,---,0.00,VWS V14.00,2013-01-30 16:04:00,
2013-01-30 11:09:00,62.5,57.9,29.79,West,280,4.0,6.0,85,0.00,,---,0.00,VWS V14.00,2013-01-30 16:09:00,
2013-01-30 11:14:00,62.5,57.9,29.78,SW,226,4.0,4.0,85,0.00,,---,0.00,VWS V14.00,2013-01-30 16:14:00,
2013-01-30 11:19:00,62.8,57.9,29.79,South,186,5.0,5.0,84,0.00,,---,0.00,VWS V14.00,2013-01-30 16:19:00,
2013-01-30 11:24:00,62.9,58.0,29.79,WSW,238,6.0,7.0,84,0.00,,---,0.00,VWS V14.00,2013-01-30 16:24:00,
2013-01-30 11:29:00,63.4,58.5,29.79,SW,221,2.0,2.0,84,0.00,,---,0.00,VWS V14.00,2013-01-30 16:29:00,
2013-01-30 11:35:00,63.3,58.1,29.79,SW,221,2.0,5.0,83,0.00,,---,0.00,VWS V14.00,2013-01-30 16:35:00,
2013-01-30 11:40:00,63.1,57.9,29.79,SSW,200,3.0,8.0,83,0.00,,---,0.00,VWS V14.00,2013-01-30 16:40:00,
2013-01-30 11:45:00,63.1,58.2,29.78,WSW,248,3.0,6.0,84,0.00,,---,0.00,VWS V14.00,2013-01-30 16:45:00,
2013-01-30 11:50:00,63.2,58.3,29.77,SSW,193,5.0,9.0,84,0.00,,---,0.00,VWS V14.00,2013-01-30 16:50:00,
2013-01-30 11:55:00,63.4,58.5,29.76,SW,223,3.0,5.0,84,0.00,,---,0.00,VWS V14.00,2013-01-30 16:55:00,
2013-01-30 12:00:00,63.7,58.8,29.76,South,181,10.0,10.0,84,0.00,,---,0.00,VWS V14.00,2013-01-30 17:00:00,
2013-01-30 12:05:00,63.9,58.6,29.75,SSW,210,2.0,2.0,83,0.00,,---,0.00,VWS V14.00,2013-01-30 17:05:00,
2013-01-30 12:10:00,63.9,58.6,29.75,SW,215,3.0,5.0,83,0.00,,---,0.00,VWS V14.00,2013-01-30 17:10:00,
2013-01-30 12:15:00,63.9,58.6,29.75,SW,223,2.0,3.0,83,0.00,,---,0.00,VWS V14.00,2013-01-30 17:15:00,
2013-01-30 12:20:00,64.0,58.7,29.75,WSW,249,4.0,5.0,83,0.00,,---,0.00,VWS V14.00,2013-01-30 17:20:00,
2013-01-30 12:25:00,64.2,58.9,29.75,NW,309,1.0,4.0,83,0.00,,---,0.00,VWS V14.00,2013-01-30 17:25:00,
2013-01-30 12:31:00,64.3,59.0,29.74,SSE,167,0.0,2.0,83,0.00,,---,0.00,VWS V14.00,2013-01-30 17:31:00,
2013-01-30 12:36:00,64.4,59.1,29.74,SSW,206,2.0,3.0,83,0.00,,---,0.00,VWS V14.00,2013-01-30 17:36:00,
2013-01-30 12:41:00,64.5,59.2,29.74,SW,232,3.0,5.0,83,0.00,,---,0.00,VWS V14.00,2013-01-30 17:41:00,
2013-01-30 12:46:00,64.4,59.1,29.73,SSW,209,3.0,5.0,83,0.00,,---,0.00,VWS V14.00,2013-01-30 17:46:00,
2013-01-30 12:51:00,64.6,59.7,29.73,WSW,239,2.0,6.0,84,0.00,,---,0.00,VWS V14.00,2013-01-30 17:51:00,
2013-01-30 12:56:00,64.9,59.6,29.72,WNW,283,5.0,9.0,83,0.00,,---,0.00,VWS V14.00,2013-01-30 17:56:00,
2013-01-30 13:01:00,65.3,60.0,29.71,SSW,197,5.0,5.0,83,0.00,,---,0.00,VWS V14.00,2013-01-30 18:01:00,
2013-01-30 13:06:00,65.7,60.1,29.70,WSW,245,4.0,4.0,82,0.00,,---,0.00,VWS V14.00,2013-01-30 18:06:00,
2013-01-30 13:11:00,65.8,60.2,29.70,WSW,256,8.0,10.0,82,0.00,,---,0.00,VWS V14.00,2013-01-30 18:11:00,
2013-01-30 13:16:00,66.0,60.3,29.70,SW,229,6.0,11.0,82,0.00,,---,0.00,VWS V14.00,2013-01-30 18:16:00,
2013-01-30 13:22:00,66.2,60.2,29.69,SSW,195,8.0,8.0,81,0.00,,---,0.00,VWS V14.00,2013-01-30 18:22:00,
2013-01-30 13:27:00,66.3,60.3,29.69,South,175,7.0,7.0,81,0.00,,---,0.00,VWS V14.00,2013-01-30 18:27:00,
2013-01-30 13:32:00,66.5,60.5,29.68,West,263,3.0,5.0,81,0.00,,---,0.00,VWS V14.00,2013-01-30 18:32:00,
2013-01-30 13:37:00,66.8,60.4,29.68,SW,227,5.0,5.0,80,0.00,,---,0.00,VWS V14.00,2013-01-30 18:37:00,
2013-01-30 13:42:00,66.9,60.5,29.68,SSW,200,5.0,8.0,80,0.00,,---,0.00,VWS V14.00,2013-01-30 18:42:00,
2013-01-30 13:47:00,66.9,60.5,29.67,SW,222,6.0,8.0,80,0.00,,---,0.00,VWS V14.00,2013-01-30 18:47:00,
2013-01-30 13:52:00,67.1,60.7,29.67,SW,215,1.0,3.0,80,0.00,,---,0.00,VWS V14.00,2013-01-30 18:52:00,
2013-01-30 13:57:00,67.5,60.8,29.66,SSE,161,13.0,15.0,79,0.00,,---,0.00,VWS V14.00,2013-01-30 18:57:00,
2013-01-30 14:03:00,67.5,60.8,29.66,South,170,7.0,7.0,79,0.00,,---,0.00,VWS V14.00,2013-01-30 19:03:00,
2013-01-30 14:08:00,67.6,60.9,29.66,SW,215,8.0,12.0,79,0.00,,---,0.00,VWS V14.00,2013-01-30 19:08:00,
2013-01-30 14:13:00,67.7,61.0,29.66,SW,214,0.0,6.0,79,0.00,,---,0.00,VWS V14.00,2013-01-30 19:13:00,
2013-01-30 14:18:00,67.6,60.9,29.66,WSW,248,4.0,7.0,79,0.00,,---,0.00,VWS V14.00,2013-01-30 19:18:00,
2013-01-30 14:23:00,67.4,60.3,29.66,South,184,1.0,3.0,78,0.00,,---,0.00,VWS V14.00,2013-01-30 19:23:00,
2013-01-30 14:28:00,67.2,60.1,29.66,SW,232,3.0,7.0,78,0.00,,---,0.00,VWS V14.00,2013-01-30 19:28:00,
2013-01-30 14:33:00,67.1,60.0,29.66,SSE,157,5.0,7.0,78,0.00,,---,0.00,VWS V14.00,2013-01-30 19:33:00,
2013-01-30 14:38:00,66.9,59.8,29.65,SSW,196,2.0,6.0,78,0.00,,---,0.00,VWS V14.00,2013-01-30 19:38:00,
2013-01-30 14:43:00,66.8,59.7,29.65,SSW,205,3.0,4.0,78,0.00,,---,0.00,VWS V14.00,2013-01-30 19:43:00,
2013-01-30 14:48:00,66.6,59.5,29.65,SSW,207,1.0,4.0,78,0.00,,---,0.00,VWS V14.00,2013-01-30 19:48:00,
2013-01-30 14:53:00,66.4,59.7,29.65,SW,219,5.0,7.0,79,0.00,,---,0.00,VWS V14.00,2013-01-30 19:53:00,
2013-01-30 14:58:00,66.2,59.5,29.64,South,187,3.0,10.0,79,0.00,,---,0.00,VWS V14.00,2013-01-30 19:58:00,
2013-01-30 15:03:00,66.2,59.5,29.65,SSW,194,12.0,12.0,79,0.00,,---,0.00,VWS V14.00,2013-01-30 20:03:00,
2013-01-30 15:08:00,66.2,59.5,29.65,WNW,296,2.0,4.0,79,0.00,,---,0.00,VWS V14.00,2013-01-30 20:08:00,
2013-01-30 15:13:00,66.0,59.3,29.65,South,173,4.0,4.0,79,0.00,,---,0.00,VWS V14.00,2013-01-30 20:13:00,
2013-01-30 15:18:00,65.9,59.2,29.65,SW,226,4.0,9.0,79,0.00,,---,0.00,VWS V14.00,2013-01-30 20:18:00,
2013-01-30 15:24:00,65.9,59.2,29.65,WSW,239,3.0,3.0,79,0.00,,---,0.00,VWS V14.00,2013-01-30 20:24:00,
2013-01-30 15:29:00,65.8,59.1,29.65,SW,217,3.0,4.0,79,0.00,,---,0.00,VWS V14.00,2013-01-30 20:29:00,
2013-01-30 15:34:00,65.7,59.0,29.65,SSW,203,6.0,6.0,79,0.00,,---,0.00,VWS V14.00,2013-01-30 20:34:00,
2013-01-30 15:39:00,65.7,59.0,29.65,SW,230,4.0,4.0,79,0.00,,---,0.00,VWS V14.00,2013-01-30 20:39:00,
2013-01-30 15:44:00,65.6,58.9,29.65,SW,221,4.0,5.0,79,0.00,,---,0.00,VWS V14.00,2013-01-30 20:44:00,
2013-01-30 15:49:00,65.4,58.7,29.64,South,190,5.0,5.0,79,0.00,,---,0.00,VWS V14.00,2013-01-30 20:49:00,
2013-01-30 15:54:00,65.3,58.6,29.64,SE,130,4.0,5.0,79,0.00,,---,0.00,VWS V14.00,2013-01-30 20:54:00,
2013-01-30 15:59:00,65.2,58.5,29.64,South,178,6.0,6.0,79,0.00,,---,0.00,VWS V14.00,2013-01-30 20:59:00,
2013-01-30 16:04:00,65.1,58.4,29.63,SSE,159,6.0,6.0,79,0.00,,---,0.00,VWS V14.00,2013-01-30 21:04:00,
2013-01-30 16:09:00,65.2,58.5,29.62,South,172,6.0,6.0,79,0.00,,---,0.00,VWS V14.00,2013-01-30 21:09:00,
2013-01-30 16:14:00,65.1,58.4,29.62,SSW,198,6.0,8.0,79,0.00,,---,0.00,VWS V14.00,2013-01-30 21:14:00,
2013-01-30 16:19:00,65.0,58.3,29.62,SE,138,4.0,5.0,79,0.00,,---,0.00,VWS V14.00,2013-01-30 21:19:00,
2013-01-30 16:24:00,64.6,58.0,29.62,SW,220,3.0,7.0,79,0.00,,---,0.00,VWS V14.00,2013-01-30 21:24:00,
2013-01-30 16:29:00,64.2,57.6,29.62,SSW,209,4.0,6.0,79,0.00,,---,0.00,VWS V14.00,2013-01-30 21:29:00,
2013-01-30 16:34:00,63.6,57.3,29.61,SSW,207,6.0,6.0,80,0.00,,---,0.00,VWS V14.00,2013-01-30 21:34:00,
2013-01-30 16:39:00,63.1,56.8,29.61,SSE,162,4.0,7.0,80,0.00,,---,0.00,VWS V14.00,2013-01-30 21:39:00,
2013-01-30 16:45:00,62.4,56.5,29.61,South,189,6.0,8.0,81,0.00,,---,0.00,VWS V14.00,2013-01-30 21:45:00,
2013-01-30 16:50:00,61.9,56.3,29.61,WSW,251,7.0,7.0,82,0.00,,---,0.00,VWS V14.00,2013-01-30 21:50:00,
2013-01-30 16:55:00,61.5,56.0,29.61,SW,225,1.0,3.0,82,0.00,,---,0.00,VWS V14.00,2013-01-30 21:55:00,
2013-01-30 17:00:00,61.1,55.9,29.61,South,189,2.0,3.0,83,0.00,,---,0.00,VWS V14.00,2013-01-30 22:00:00,
2013-01-30 17:05:00,60.9,56.0,29.62,SSW,205,0.0,0.0,84,0.00,,---,0.00,VWS V14.00,2013-01-30 22:05:00,
2013-01-30 17:10:00,60.6,55.8,29.62,SSE,161,4.0,5.0,84,0.00,,---,0.00,VWS V14.00,2013-01-30 22:10:00,
2013-01-30 17:15:00,60.4,55.9,29.62,SSW,200,1.0,2.0,85,0.00,,---,0.00,VWS V14.00,2013-01-30 22:15:00,
2013-01-30 17:20:00,60.2,55.7,29.62,SSE,161,5.0,5.0,85,0.00,,---,0.00,VWS V14.00,2013-01-30 22:20:00,
2013-01-30 17:25:00,60.0,55.8,29.62,SSW,197,2.0,4.0,86,0.00,,---,0.00,VWS V14.00,2013-01-30 22:25:00,
2013-01-30 17:30:00,60.0,55.8,29.62,SSW,202,3.0,5.0,86,0.00,,---,0.00,VWS V14.00,2013-01-30 22:30:00,
2013-01-30 17:35:00,60.0,55.8,29.61,SSW,206,2.0,3.0,86,0.00,,---,0.00,VWS V14.00,2013-01-30 22:35:00,
2013-01-30 17:40:00,60.1,56.2,29.61,WSW,248,2.0,8.0,87,0.00,,---,0.00,VWS V14.00,2013-01-30 22:40:00,
2013-01-30 17:45:00,60.3,56.1,29.60,SSW,197,2.0,5.0,86,0.00,,---,0.00,VWS V14.00,2013-01-30 22:45:00,
2013-01-30 17:50:00,60.5,56.6,29.60,West,269,7.0,7.0,87,0.00,,---,0.00,VWS V14.00,2013-01-30 22:50:00,
2013-01-30 17:55:00,60.6,56.4,29.60,West,259,3.0,6.0,86,0.00,,---,0.00,VWS V14.00,2013-01-30 22:55:00,
2013-01-30 18:00:00,60.8,56.6,29.60,SSW,196,7.0,7.0,86,0.00,,---,0.00,VWS V14.00,2013-01-30 23:00:00,
2013-01-30 18:05:00,61.0,56.8,29.60,South,178,4.0,4.0,86,0.00,,---,0.00,VWS V14.00,2013-01-30 23:05:00,
2013-01-30 18:10:00,61.2,57.0,29.60,SW,214,3.0,5.0,86,0.00,,---,0.00,VWS V14.00,2013-01-30 23:10:00,
2013-01-30 18:16:00,61.4,56.9,29.60,SSW,195,3.0,6.0,85,0.00,,---,0.00,VWS V14.00,2013-01-30 23:16:00,
2013-01-30 18:21:00,61.6,57.0,29.60,SSE,161,11.0,11.0,85,0.00,,---,0.00,VWS V14.00,2013-01-30 23:21:00,
2013-01-30 18:26:00,61.6,57.0,29.60,West,273,6.0,7.0,85,0.00,,---,0.00,VWS V14.00,2013-01-30 23:26:00,
2013-01-30 18:31:00,61.8,57.2,29.60,WSW,238,7.0,7.0,85,0.00,,---,0.00,VWS V14.00,2013-01-30 23:31:00,
2013-01-30 18:36:00,62.0,57.5,29.60,WSW,246,4.0,5.0,85,0.00,,---,0.00,VWS V14.00,2013-01-30 23:36:00,
2013-01-30 18:41:00,62.1,57.5,29.60,SW,225,4.0,6.0,85,0.00,,---,0.00,VWS V14.00,2013-01-30 23:41:00,
2013-01-30 18:46:00,62.2,57.6,29.61,SW,221,2.0,2.0,85,0.00,,---,0.00,VWS V14.00,2013-01-30 23:46:00,
2013-01-30 18:51:00,62.3,57.7,29.61,SW,216,4.0,4.0,85,0.00,,---,0.00,VWS V14.00,2013-01-30 23:51:00,
2013-01-30 18:56:00,62.3,57.7,29.62,SSW,213,2.0,2.0,85,0.00,,---,0.00,VWS V14.00,2013-01-30 23:56:00,
2013-01-30 19:01:00,62.3,57.7,29.60,SW,231,3.0,3.0,85,0.00,,---,0.00,VWS V14.00,2013-01-31 00:01:00,
2013-01-30 19:06:00,62.3,57.7,29.60,South,176,6.0,11.0,85,0.00,,---,0.00,VWS V14.00,2013-01-31 00:06:00,
2013-01-30 19:11:00,62.3,57.7,29.60,SW,224,4.0,6.0,85,0.00,,---,0.00,VWS V14.00,2013-01-31 00:11:00,
2013-01-30 19:16:00,62.5,57.9,29.60,SW,220,2.0,4.0,85,0.00,,---,0.00,VWS V14.00,2013-01-31 00:16:00,
2013-01-30 19:21:00,62.6,58.0,29.59,West,275,4.0,8.0,85,0.00,,---,0.00,VWS V14.00,2013-01-31 00:21:00,
2013-01-30 19:26:00,62.8,58.2,29.59,WSW,257,4.0,6.0,85,0.00,,---,0.00,VWS V14.00,2013-01-31 00:26:00,
2013-01-30 19:31:00,62.9,58.0,29.59,SW,216,4.0,4.0,84,0.00,,---,0.00,VWS V14.00,2013-01-31 00:31:00,
2013-01-30 19:37:00,62.9,58.0,29.59,SW,234,3.0,4.0,84,0.00,,---,0.00,VWS V14.00,2013-01-31 00:37:00,
2013-01-30 19:42:00,62.9,58.0,29.59,SSW,198,1.0,6.0,84,0.00,,---,0.00,VWS V14.00,2013-01-31 00:42:00,
2013-01-30 19:47:00,62.9,58.0,29.58,SW,217,5.0,5.0,84,0.00,,---,0.00,VWS V14.00,2013-01-31 00:47:00,
2013-01-30 19:52:00,62.8,57.9,29.58,South,169,0.0,4.0,84,0.00,,---,0.00,VWS V14.00,2013-01-31 00:52:00,
2013-01-30 19:57:00,62.7,58.1,29.57,SW,223,2.0,3.0,85,0.00,,---,0.00,VWS V14.00,2013-01-31 00:57:00,
2013-01-30 20:02:00,62.6,58.0,29.57,South,186,4.0,9.0,85,0.00,,---,0.00,VWS V14.00,2013-01-31 01:02:00,
2013-01-30 20:07:00,62.5,57.9,29.56,South,185,5.0,7.0,85,0.00,,---,0.00,VWS V14.00,2013-01-31 01:07:00,
2013-01-30 20:12:00,62.3,57.7,29.56,South,184,1.0,1.0,85,0.00,,---,0.00,VWS V14.00,2013-01-31 01:12:00,
2013-01-30 20:17:00,62.0,57.8,29.56,SE,146,6.0,6.0,86,0.00,,---,0.00,VWS V14.00,2013-01-31 01:17:00,
2013-01-30 20:22:00,61.7,57.5,29.55,SSE,155,2.0,5.0,86,0.00,,---,0.00,VWS V14.00,2013-01-31 01:22:00,
2013-01-30 20:27:00,61.4,57.5,29.55,South,180,4.0,6.0,87,0.00,,---,0.00,VWS V14.00,2013-01-31 01:27:00,
2013-01-30 20:32:00,61.2,57.3,29.54,South,177,1.0,3.0,87,0.00,,---,0.00,VWS V14.00,2013-01-31 01:32:00,
2013-01-30 20:37:00,61.0,57.4,29.54,South,183,4.0,6.0,88,0.00,,---,0.00,VWS V14.00,2013-01-31 01:37:00,
2013-01-30 20:42:00,60.9,57.3,29.53,SSW,208,4.0,9.0,88,0.00,,---,0.00,VWS V14.00,2013-01-31 01:42:00,
2013-01-30 20:47:00,60.9,57.6,29.54,South,187,5.0,11.0,89,0.00,,---,0.00,VWS V14.00,2013-01-31 01:47:00,
2013-01-30 20:53:00,60.9,57.6,29.53,South,174,4.0,11.0,89,0.00,,---,0.00,VWS V14.00,2013-01-31 01:53:00,
2013-01-30 20:58:00,61.0,57.7,29.53,SW,225,4.0,5.0,89,0.00,,---,0.00,VWS V14.00,2013-01-31 01:58:00,
2013-01-30 21:03:00,61.1,57.8,29.52,SE,144,4.0,11.0,89,0.00,,---,0.00,VWS V14.00,2013-01-31 02:03:00,
2013-01-30 21:08:00,61.3,58.0,29.52,SW,221,7.0,8.0,89,0.00,,---,0.00,VWS V14.00,2013-01-31 02:08:00,
2013-01-30 21:13:00,61.5,58.2,29.51,SW,234,9.0,9.0,89,0.00,,---,0.00,VWS V14.00,2013-01-31 02:13:00,
2013-01-30 21:18:00,61.7,58.4,29.51,WSW,241,9.0,11.0,89,0.00,,---,0.00,VWS V14.00,2013-01-31 02:18:00,
2013-01-30 21:23:00,61.8,58.5,29.50,SSE,159,1.0,5.0,89,0.00,,---,0.00,VWS V14.00,2013-01-31 02:23:00,
2013-01-30 21:28:00,62.1,58.8,29.50,SSE,166,2.0,6.0,89,0.00,,---,0.00,VWS V14.00,2013-01-31 02:28:00,
2013-01-30 21:33:00,62.1,58.5,29.50,South,182,8.0,10.0,88,0.00,,---,0.00,VWS V14.00,2013-01-31 02:33:00,
2013-01-30 21:38:00,62.2,58.6,29.49,SE,146,5.0,11.0,88,0.00,,---,0.00,VWS V14.00,2013-01-31 02:38:00,
2013-01-30 21:43:00,62.2,58.6,29.49,SSW,194,8.0,14.0,88,0.00,,---,0.00,VWS V14.00,2013-01-31 02:43:00,
2013-01-30 21:48:00,62.1,58.5,29.48,South,183,6.0,9.0,88,0.00,,---,0.00,VWS V14.00,2013-01-31 02:48:00,
2013-01-30 21:54:00,62.0,58.4,29.47,SE,124,7.0,9.0,88,0.00,,---,0.00,VWS V14.00,2013-01-31 02:54:00,
2013-01-30 21:59:00,62.0,58.4,29.48,SSW,208,8.0,12.0,88,0.00,,---,0.00,VWS V14.00,2013-01-31 02:59:00,
2013-01-30 22:04:00,61.9,58.3,29.47,South,170,1.0,8.0,88,0.00,,---,0.00,VWS V14.00,2013-01-31 03:04:00,
2013-01-30 22:09:00,61.8,58.2,29.47,SE,145,10.0,10.0,88,0.00,,---,0.00,VWS V14.00,2013-01-31 03:09:00,
2013-01-30 22:14:00,61.7,58.1,29.47,SW,233,8.0,8.0,88,0.00,,---,0.00,VWS V14.00,2013-01-31 03:14:00,
2013-01-30 22:19:00,61.6,58.0,29.46,SE,136,7.0,7.0,88,0.00,,---,0.00,VWS V14.00,2013-01-31 03:19:00,
2013-01-30 22:24:00,61.4,57.8,29.46,South,190,7.0,9.0,88,0.00,,---,0.00,VWS V14.00,2013-01-31 03:24:00,
2013-01-30 22:29:00,61.4,57.8,29.47,East,81,5.0,9.0,88,0.00,,---,0.00,VWS V14.00,2013-01-31 03:29:00,
2013-01-30 22:34:00,61.4,57.8,29.46,SSW,200,4.0,8.0,88,0.00,,---,0.00,VWS V14.00,2013-01-31 03:34:00,
2013-01-30 22:39:00,61.3,57.7,29.45,SSW,200,7.0,10.0,88,0.00,,---,0.00,VWS V14.00,2013-01-31 03:39:00,
2013-01-30 22:44:00,61.4,57.8,29.45,SSW,200,4.0,9.0,88,0.00,,---,0.00,VWS V14.00,2013-01-31 03:44:00,
2013-01-30 22:49:00,61.5,57.9,29.45,South,169,6.0,9.0,88,0.00,,---,0.00,VWS V14.00,2013-01-31 03:49:00,
2013-01-30 22:54:00,61.8,58.5,29.44,SSW,213,5.0,11.0,89,0.00,,---,0.00,VWS V14.00,2013-01-31 03:54:00,
2013-01-30 22:59:00,61.9,58.3,29.43,WNW,290,15.0,18.0,88,0.00,,---,0.00,VWS V14.00,2013-01-31 03:59:00,
2013-01-30 23:04:00,62.1,58.5,29.43,SW,234,3.0,5.0,88,0.00,,---,0.00,VWS V14.00,2013-01-31 04:04:00,
2013-01-30 23:09:00,62.3,58.7,29.42,SW,227,9.0,12.0,88,0.00,,---,0.00,VWS V14.00,2013-01-31 04:09:00,
2013-01-30 23:15:00,62.3,58.7,29.42,SW,223,11.0,11.0,88,0.00,,---,0.00,VWS V14.00,2013-01-31 04:15:00,
2013-01-30 23:20:00,62.3,59.0,29.42,SW,217,13.0,13.0,89,0.00,,---,0.00,VWS V14.00,2013-01-31 04:20:00,
2013-01-30 23:25:00,62.3,59.0,29.41,SSW,194,6.0,6.0,89,0.00,,---,0.00,VWS V14.00,2013-01-31 04:25:00,
2013-01-30 23:30:00,62.4,59.1,29.40,ESE,114,2.0,8.0,89,0.00,,---,0.00,VWS V14.00,2013-01-31 04:30:00,
2013-01-30 23:35:00,62.6,59.3,29.41,South,176,16.0,16.0,89,0.01,,---,0.01,VWS V14.00,2013-01-31 04:35:00,
2013-01-30 23:40:00,62.7,59.4,29.40,SW,224,7.0,11.0,89,0.01,,---,0.01,VWS V14.00,2013-01-31 04:40:00,
2013-01-30 23:45:00,62.5,59.5,29.39,SW,219,8.0,15.0,90,0.02,,---,0.02,VWS V14.00,2013-01-31 04:45:00,
2013-01-30 23:50:00,62.3,59.6,29.39,SSW,211,7.0,9.0,91,0.03,,---,0.03,VWS V14.00,2013-01-31 04:50:00,
2013-01-30 23:55:00,62.0,59.7,29.39,SSW,209,9.0,9.0,92,0.05,,---,0.05,VWS V14.00,2013-01-31 04:55:00,